Time;durP1;ratioP1;P1;durP2;ratioP2;P2;SDS_P1;SDS_P2;PMS_P1;PMS_P2;Temp;Humidity;BMP_temperature;BMP_pressure;BME280_temperature;BME280_humidity;BME280_pressure;Samples;Min_cycle;Max_cycle;Signal;HPM_P1;HPM_P2
2022/03/15 00:00:21;;;;;;;0.50;0.40;;;6.70;99.90;;;;;;4940065;29;20451;-78
2022/03/15 00:02:49;;;;;;;0.80;0.80;;;6.60;99.90;;;;;;4940466;29;20447;-79
2022/03/15 00:05:16;;;;;;;0.30;0.30;;;6.60;99.90;;;;;;4940175;29;20459;-78
2022/03/15 00:07:43;;;;;;;0.30;0.30;;;6.50;99.90;;;;;;4939930;29;20557;-79
2022/03/15 00:10:12;;;;;;;0.30;0.20;;;6.50;99.90;;;;;;4939765;29;20462;-78
2022/03/15 00:12:40;;;;;;;0.40;0.40;;;6.40;99.90;;;;;;4939637;29;20482;-78
2022/03/15 00:15:08;;;;;;;0.30;0.20;;;6.40;99.90;;;;;;4939404;29;20440;-78
2022/03/15 00:17:35;;;;;;;0.40;0.30;;;6.40;99.90;;;;;;4939657;29;20475;-78
2022/03/15 00:20:02;;;;;;;0.33;0.33;;;6.40;99.90;;;;;;4939773;29;20451;-78
2022/03/15 00:22:29;;;;;;;0.30;0.30;;;6.40;99.90;;;;;;4939498;29;20459;-79
2022/03/15 00:24:56;;;;;;;0.37;0.30;;;6.30;99.90;;;;;;4939624;29;20461;-78
2022/03/15 00:27:23;;;;;;;0.40;0.30;;;6.30;99.90;;;;;;4939538;29;20459;-78
2022/03/15 00:29:51;;;;;;;0.40;0.40;;;6.30;99.90;;;;;;4939855;29;20455;-78
2022/03/15 00:32:19;;;;;;;0.30;0.30;;;6.30;99.90;;;;;;4939551;29;20551;-79
2022/03/15 00:34:47;;;;;;;0.63;0.63;;;6.30;99.90;;;;;;4940572;29;20479;-78
2022/03/15 00:37:13;;;;;;;0.30;0.20;;;6.30;99.90;;;;;;4941013;29;20451;-78
2022/03/15 00:39:41;;;;;;;0.30;0.20;;;6.30;99.90;;;;;;4939753;29;20998;-79
2022/03/15 00:42:08;;;;;;;0.30;0.30;;;6.30;99.90;;;;;;4941428;29;20455;-78
2022/03/15 00:44:35;;;;;;;0.60;0.30;;;6.30;99.90;;;;;;4943578;29;20444;-78
2022/03/15 00:47:03;;;;;;;0.33;0.33;;;6.30;99.90;;;;;;4944833;29;20989;-79
2022/03/15 00:49:30;;;;;;;0.90;0.67;;;6.20;99.90;;;;;;4941305;29;21009;-78
2022/03/15 00:51:57;;;;;;;0.60;0.30;;;6.30;99.90;;;;;;4940761;29;20454;-78
2022/03/15 00:54:24;;;;;;;0.77;0.37;;;6.20;99.90;;;;;;4941023;29;20483;-78
2022/03/15 00:56:51;;;;;;;0.30;0.30;;;6.20;99.90;;;;;;4939490;29;20838;-78
2022/03/15 00:59:18;;;;;;;0.30;0.30;;;6.30;99.90;;;;;;4938920;29;20483;-79
2022/03/15 01:01:44;;;;;;;0.40;0.30;;;6.20;99.90;;;;;;4938990;29;20459;-79
2022/03/15 01:04:13;;;;;;;0.30;0.30;;;6.20;99.90;;;;;;4938773;29;20456;-78
2022/03/15 01:06:42;;;;;;;0.40;0.40;;;6.20;99.90;;;;;;4938807;29;20458;-78
2022/03/15 01:09:10;;;;;;;0.30;0.30;;;6.20;99.90;;;;;;4939676;29;20843;-78
2022/03/15 01:11:37;;;;;;;0.30;0.30;;;6.10;99.90;;;;;;4940026;29;20514;-78
2022/03/15 01:14:04;;;;;;;0.30;0.30;;;6.20;99.90;;;;;;4939152;29;20494;-78
2022/03/15 01:16:31;;;;;;;0.30;0.30;;;6.20;99.90;;;;;;4939449;29;20447;-78
2022/03/15 01:18:59;;;;;;;0.30;0.30;;;6.10;99.90;;;;;;4938800;29;20482;-78
2022/03/15 01:21:28;;;;;;;0.30;0.20;;;6.20;99.90;;;;;;4938397;29;20927;-79
2022/03/15 01:23:55;;;;;;;0.30;0.30;;;6.20;99.90;;;;;;4938604;29;20447;-78
2022/03/15 01:26:22;;;;;;;0.30;0.20;;;6.20;99.90;;;;;;4938388;29;20462;-78
2022/03/15 01:28:48;;;;;;;0.40;0.40;;;6.20;99.90;;;;;;4938039;29;20471;-79
2022/03/15 01:31:15;;;;;;;0.67;0.67;;;6.10;99.90;;;;;;4938063;29;20466;-78
2022/03/15 01:33:42;;;;;;;0.40;0.30;;;6.20;99.90;;;;;;4937979;29;20509;-79
2022/03/15 01:36:09;;;;;;;0.50;0.40;;;6.20;99.90;;;;;;4938117;29;20466;-79
2022/03/15 01:38:37;;;;;;;0.50;0.40;;;6.10;99.90;;;;;;4937762;29;20478;-78
2022/03/15 01:41:04;;;;;;;0.30;0.30;;;6.20;99.90;;;;;;4938212;29;20436;-79
2022/03/15 01:43:31;;;;;;;0.30;0.30;;;6.20;99.90;;;;;;4938061;29;20454;-79
2022/03/15 01:45:58;;;;;;;0.30;0.20;;;6.20;99.90;;;;;;4939065;29;20455;-79
2022/03/15 01:48:25;;;;;;;0.30;0.30;;;6.20;99.90;;;;;;4938087;29;20501;-78
2022/03/15 01:50:52;;;;;;;0.30;0.20;;;6.20;99.90;;;;;;4937442;29;21034;-78
2022/03/15 01:53:18;;;;;;;0.30;0.20;;;6.20;99.90;;;;;;4937914;29;20487;-78
2022/03/15 01:55:47;;;;;;;0.30;0.30;;;6.20;99.90;;;;;;4937903;29;20455;-78
2022/03/15 01:58:13;;;;;;;0.40;0.40;;;6.10;99.90;;;;;;4937753;29;20475;-79
2022/03/15 02:00:40;;;;;;;0.40;0.30;;;6.10;99.90;;;;;;4937876;29;20450;-78
2022/03/15 02:03:07;;;;;;;0.40;0.33;;;6.00;99.90;;;;;;4937641;29;20455;-78
2022/03/15 02:05:34;;;;;;;0.30;0.30;;;6.00;99.90;;;;;;4937675;29;20464;-79
2022/03/15 02:08:10;;;;;;;0.40;0.30;;;6.00;99.90;;;;;;4937608;29;20467;-78
2022/03/15 02:10:36;;;;;;;0.30;0.20;;;6.00;99.90;;;;;;4937696;29;20440;-78
2022/03/15 02:13:05;;;;;;;0.40;0.30;;;6.00;99.90;;;;;;4937505;29;20450;-79
2022/03/15 02:15:32;;;;;;;0.30;0.20;;;6.00;99.90;;;;;;4937548;29;20467;-78
2022/03/15 02:17:58;;;;;;;0.30;0.20;;;5.90;99.90;;;;;;4937398;29;20498;-78
2022/03/15 02:20:27;;;;;;;0.30;0.30;;;6.00;99.90;;;;;;4937280;29;20459;-78
2022/03/15 02:22:53;;;;;;;0.40;0.40;;;5.90;99.90;;;;;;4937468;29;20462;-79
2022/03/15 02:25:21;;;;;;;0.40;0.40;;;5.90;99.90;;;;;;4937350;29;20455;-79
2022/03/15 02:27:48;;;;;;;0.50;0.40;;;5.90;99.90;;;;;;4937210;29;20467;-78
2022/03/15 02:30:15;;;;;;;0.30;0.30;;;5.90;99.90;;;;;;4936766;29;20947;-78
2022/03/15 02:32:42;;;;;;;0.40;0.30;;;5.90;99.90;;;;;;4937247;29;20458;-78
2022/03/15 02:35:10;;;;;;;0.40;0.40;;;5.90;99.90;;;;;;4937386;29;20495;-78
2022/03/15 02:37:38;;;;;;;0.30;0.20;;;5.90;99.90;;;;;;4936786;29;20475;-79
2022/03/15 02:40:06;;;;;;;0.30;0.23;;;6.00;99.90;;;;;;4936690;29;20479;-78
2022/03/15 02:42:33;;;;;;;0.30;0.30;;;6.00;99.90;;;;;;4937154;29;20558;-78
2022/03/15 02:45:00;;;;;;;0.40;0.30;;;6.00;99.90;;;;;;4936889;29;20459;-78
2022/03/15 02:47:27;;;;;;;0.30;0.30;;;6.00;99.90;;;;;;4936920;29;20467;-78
2022/03/15 02:49:53;;;;;;;0.53;0.40;;;6.00;99.90;;;;;;4936633;29;20459;-79
2022/03/15 02:52:20;;;;;;;0.30;0.30;;;6.00;99.90;;;;;;4936812;29;20514;-78
2022/03/15 02:54:48;;;;;;;0.60;0.60;;;6.00;99.90;;;;;;4936580;29;20482;-78
2022/03/15 02:57:16;;;;;;;0.80;0.30;;;6.00;99.90;;;;;;4936878;29;20455;-78
2022/03/15 02:59:43;;;;;;;0.30;0.30;;;5.90;99.90;;;;;;4936897;29;20468;-79
2022/03/15 03:02:09;;;;;;;0.30;0.20;;;5.90;99.90;;;;;;4936144;29;20455;-78
2022/03/15 03:04:36;;;;;;;0.83;0.83;;;5.90;99.90;;;;;;4936499;29;20447;-78
2022/03/15 03:07:03;;;;;;;0.33;0.30;;;5.90;99.90;;;;;;4936650;29;20458;-78
2022/03/15 03:09:30;;;;;;;0.30;0.30;;;5.90;99.90;;;;;;4936629;29;20494;-79
2022/03/15 03:11:58;;;;;;;0.30;0.20;;;5.90;99.90;;;;;;4936457;29;20452;-79
2022/03/15 03:14:25;;;;;;;0.40;0.40;;;5.90;99.90;;;;;;4936656;29;20491;-78
2022/03/15 03:16:52;;;;;;;0.60;0.30;;;5.90;99.90;;;;;;4936169;29;20833;-78
2022/03/15 03:19:20;;;;;;;0.40;0.30;;;5.90;99.90;;;;;;4936329;29;20471;-78
2022/03/15 03:21:49;;;;;;;0.30;0.30;;;5.90;99.90;;;;;;4936550;29;20455;-78
2022/03/15 03:24:19;;;;;;;1.43;0.50;;;5.80;99.90;;;;;;4936460;29;20458;-78
2022/03/15 03:26:46;;;;;;;0.30;0.23;;;5.90;99.90;;;;;;4936552;29;20815;-78
2022/03/15 03:29:15;;;;;;;0.37;0.37;;;5.80;99.90;;;;;;4936788;29;20494;-78
2022/03/15 03:31:44;;;;;;;0.30;0.30;;;5.80;99.90;;;;;;4936863;29;20463;-78
2022/03/15 03:34:12;;;;;;;0.40;0.30;;;5.90;99.90;;;;;;4936596;29;20483;-78
2022/03/15 03:36:39;;;;;;;0.30;0.20;;;5.80;99.90;;;;;;4936875;29;20455;-79
2022/03/15 03:39:07;;;;;;;0.40;0.40;;;5.80;99.90;;;;;;4936254;29;20497;-78
2022/03/15 03:41:34;;;;;;;0.47;0.47;;;5.90;99.90;;;;;;4936882;29;20454;-79
2022/03/15 03:44:01;;;;;;;0.30;0.30;;;5.90;99.90;;;;;;4936644;29;20943;-79
2022/03/15 03:46:31;;;;;;;0.30;0.30;;;5.90;99.90;;;;;;4936679;29;20455;-79
2022/03/15 03:48:57;;;;;;;0.40;0.40;;;5.90;99.90;;;;;;4936735;29;20475;-78
2022/03/15 03:51:24;;;;;;;0.30;0.30;;;5.90;99.90;;;;;;4936582;29;20454;-78
2022/03/15 03:53:51;;;;;;;0.40;0.30;;;5.90;99.90;;;;;;4936454;29;20838;-79
2022/03/15 03:56:18;;;;;;;0.30;0.30;;;5.90;99.90;;;;;;4936824;29;20455;-79
2022/03/15 03:58:45;;;;;;;0.40;0.30;;;5.90;99.90;;;;;;4936793;29;20475;-79
2022/03/15 04:01:12;;;;;;;0.30;0.30;;;5.90;99.90;;;;;;4936153;29;20454;-78
2022/03/15 04:03:40;;;;;;;0.30;0.30;;;5.90;99.90;;;;;;4936863;29;20506;-78
2022/03/15 04:06:09;;;;;;;0.30;0.20;;;5.90;99.90;;;;;;4936539;29;20450;-78
2022/03/15 04:08:36;;;;;;;0.40;0.30;;;5.90;99.90;;;;;;4936179;29;20845;-79
2022/03/15 04:11:03;;;;;;;0.30;0.20;;;5.80;99.90;;;;;;4936370;29;20966;-78
2022/03/15 04:13:29;;;;;;;0.30;0.30;;;5.80;99.90;;;;;;4937369;29;20947;-78
2022/03/15 04:15:56;;;;;;;0.37;0.27;;;5.80;99.90;;;;;;4940138;29;20451;-78
2022/03/15 04:18:23;;;;;;;0.30;0.20;;;5.70;99.90;;;;;;4939948;29;20813;-79
2022/03/15 04:20:51;;;;;;;0.30;0.30;;;5.70;99.90;;;;;;4939907;29;20455;-78
2022/03/15 04:23:17;;;;;;;0.30;0.20;;;5.70;99.90;;;;;;4939702;29;20458;-78
2022/03/15 04:25:44;;;;;;;0.30;0.20;;;5.70;99.90;;;;;;4939719;29;20474;-79
2022/03/15 04:28:12;;;;;;;0.50;0.50;;;5.70;99.90;;;;;;4939301;29;20478;-79
2022/03/15 04:30:38;;;;;;;0.47;0.47;;;5.70;99.90;;;;;;4939373;29;20970;-78
2022/03/15 04:33:05;;;;;;;0.50;0.47;;;5.70;99.90;;;;;;4939950;29;20459;-79
2022/03/15 04:35:32;;;;;;;0.30;0.20;;;5.70;99.90;;;;;;4939787;29;20548;-79
2022/03/15 04:38:01;;;;;;;0.40;0.30;;;5.70;99.90;;;;;;4939893;29;20459;-78
2022/03/15 04:40:27;;;;;;;0.30;0.30;;;5.70;99.90;;;;;;4939675;29;20533;-79
2022/03/15 04:42:55;;;;;;;0.60;0.43;;;5.70;99.90;;;;;;4940065;29;20451;-78
2022/03/15 04:45:24;;;;;;;0.30;0.30;;;5.60;99.90;;;;;;4938933;29;20503;-79
2022/03/15 04:47:50;;;;;;;0.30;0.30;;;5.60;99.90;;;;;;4939140;29;20475;-78
2022/03/15 04:50:18;;;;;;;0.30;0.30;;;5.70;99.90;;;;;;4938868;29;20462;-78
2022/03/15 04:52:45;;;;;;;0.30;0.30;;;5.60;99.90;;;;;;4939017;29;20459;-79
2022/03/15 04:55:13;;;;;;;0.37;0.33;;;5.60;99.90;;;;;;4939026;29;20532;-78
2022/03/15 04:57:40;;;;;;;0.50;0.50;;;5.60;99.90;;;;;;4938390;29;20464;-78
2022/03/15 05:00:09;;;;;;;0.70;0.63;;;5.60;99.90;;;;;;4938929;29;20486;-78
2022/03/15 05:02:36;;;;;;;0.30;0.20;;;5.70;99.90;;;;;;4939620;29;20455;-79
2022/03/15 05:05:03;;;;;;;2.40;0.50;;;5.70;99.90;;;;;;4938923;29;20447;-79
2022/03/15 05:07:30;;;;;;;0.30;0.30;;;5.70;99.90;;;;;;4938660;29;20471;-79
2022/03/15 05:12:43;;;;;;;0.30;0.20;;;5.70;99.90;;;;;;4938997;29;20506;-78
2022/03/15 05:15:10;;;;;;;0.30;0.30;;;5.70;99.90;;;;;;4938904;29;20519;-78
2022/03/15 05:17:37;;;;;;;0.30;0.20;;;5.70;99.90;;;;;;4941654;29;20460;-79
2022/03/15 05:20:05;;;;;;;0.30;0.30;;;5.70;99.90;;;;;;4941728;29;20448;-79
2022/03/15 05:22:32;;;;;;;0.50;0.50;;;5.70;99.90;;;;;;4939995;29;20455;-79
2022/03/15 05:24:59;;;;;;;0.30;0.30;;;5.70;99.90;;;;;;4939393;29;20456;-78
2022/03/15 05:27:26;;;;;;;0.40;0.40;;;5.70;99.90;;;;;;4939426;29;20815;-78
2022/03/15 05:29:55;;;;;;;0.30;0.20;;;5.70;99.90;;;;;;4939609;29;20474;-79
2022/03/15 05:32:22;;;;;;;0.60;0.40;;;5.70;99.90;;;;;;4940240;29;20458;-79
2022/03/15 05:34:49;;;;;;;0.30;0.30;;;5.80;99.90;;;;;;4939838;29;20482;-78
2022/03/15 05:37:16;;;;;;;1.33;1.33;;;5.80;99.90;;;;;;4939190;29;20461;-78
2022/03/15 05:39:43;;;;;;;0.30;0.20;;;5.70;99.90;;;;;;4938789;29;20485;-79
2022/03/15 05:42:12;;;;;;;0.70;0.70;;;5.80;99.90;;;;;;4940382;29;20455;-78
2022/03/15 05:44:39;;;;;;;0.30;0.30;;;5.80;99.90;;;;;;4939984;29;20534;-78
2022/03/15 05:47:07;;;;;;;0.30;0.20;;;5.80;99.90;;;;;;4939285;29;20486;-78
2022/03/15 05:49:34;;;;;;;0.77;0.67;;;5.80;99.90;;;;;;4940299;29;20463;-78
2022/03/15 05:52:01;;;;;;;0.30;0.30;;;5.80;99.90;;;;;;4938779;29;20451;-78
2022/03/15 05:54:28;;;;;;;0.40;0.30;;;5.80;99.90;;;;;;4938852;29;20494;-78
2022/03/15 05:56:54;;;;;;;0.57;0.50;;;5.80;99.90;;;;;;4938812;29;20455;-78
2022/03/15 05:59:21;;;;;;;0.40;0.40;;;5.80;99.90;;;;;;4938521;29;20471;-78
2022/03/15 06:01:48;;;;;;;0.50;0.50;;;5.90;99.90;;;;;;4938524;29;20455;-78
2022/03/15 06:04:16;;;;;;;0.30;0.20;;;5.90;99.90;;;;;;4939081;29;20451;-78
2022/03/15 06:06:43;;;;;;;0.30;0.30;;;5.90;99.90;;;;;;4939483;29;20493;-78
2022/03/15 06:09:10;;;;;;;0.30;0.30;;;6.00;99.90;;;;;;4938260;29;20466;-78
2022/03/15 06:11:39;;;;;;;0.30;0.30;;;6.00;99.90;;;;;;4938163;29;20451;-78
2022/03/15 06:14:06;;;;;;;0.37;0.33;;;6.10;99.90;;;;;;4938228;29;20510;-78
2022/03/15 06:16:32;;;;;;;0.30;0.20;;;6.10;99.90;;;;;;4938459;29;20811;-79
2022/03/15 06:18:59;;;;;;;0.50;0.47;;;6.10;99.90;;;;;;4937903;29;20471;-78
2022/03/15 06:21:27;;;;;;;0.30;0.30;;;6.00;99.90;;;;;;4937783;29;20447;-78
2022/03/15 06:23:54;;;;;;;0.30;0.30;;;6.00;99.90;;;;;;4937659;29;20837;-78
2022/03/15 06:26:21;;;;;;;0.30;0.30;;;6.10;99.90;;;;;;4938604;29;20450;-78
2022/03/15 06:28:48;;;;;;;0.87;0.40;;;6.10;99.90;;;;;;4938097;29;20471;-78
2022/03/15 06:31:15;;;;;;;0.57;0.57;;;6.10;99.90;;;;;;4938542;29;20927;-79
2022/03/15 06:33:43;;;;;;;0.40;0.40;;;6.10;99.90;;;;;;4938306;29;20462;-78
2022/03/15 06:36:11;;;;;;;0.57;0.40;;;6.10;99.90;;;;;;4937839;29;20482;-78
2022/03/15 06:38:40;;;;;;;0.30;0.20;;;6.10;99.90;;;;;;4937487;29;20608;-78
2022/03/15 06:41:07;;;;;;;0.50;0.50;;;6.10;99.90;;;;;;4937398;29;20975;-78
2022/03/15 06:43:35;;;;;;;0.70;0.47;;;6.10;99.90;;;;;;4937535;29;20463;-78
2022/03/15 06:46:02;;;;;;;0.30;0.30;;;6.20;99.90;;;;;;4937646;29;20443;-78
2022/03/15 06:48:28;;;;;;;0.40;0.30;;;6.20;99.90;;;;;;4937330;29;20530;-78
2022/03/15 06:50:55;;;;;;;0.40;0.30;;;6.30;99.90;;;;;;4937194;29;20977;-78
2022/03/15 06:53:22;;;;;;;1.87;1.60;;;6.30;99.90;;;;;;4937147;29;20962;-78
2022/03/15 06:55:50;;;;;;;0.30;0.20;;;6.40;99.90;;;;;;4937744;29;20478;-78
2022/03/15 06:58:17;;;;;;;0.60;0.60;;;6.40;99.90;;;;;;4937707;29;20471;-78
2022/03/15 07:00:44;;;;;;;0.30;0.30;;;6.50;99.90;;;;;;4938165;29;20461;-79
2022/03/15 07:03:11;;;;;;;0.30;0.30;;;6.50;99.90;;;;;;4938449;29;20459;-79
2022/03/15 07:05:38;;;;;;;0.50;0.40;;;6.60;99.90;;;;;;4937025;29;20447;-78
2022/03/15 07:08:06;;;;;;;0.30;0.20;;;6.70;99.90;;;;;;4936706;29;20474;-78
2022/03/15 07:10:33;;;;;;;0.40;0.40;;;6.80;99.90;;;;;;4937201;29;20506;-79
2022/03/15 07:13:02;;;;;;;0.30;0.30;;;6.80;99.90;;;;;;4936940;29;20455;-78
2022/03/15 07:15:28;;;;;;;0.50;0.50;;;6.90;99.90;;;;;;4937036;29;20487;-78
2022/03/15 07:17:57;;;;;;;0.30;0.30;;;6.90;99.90;;;;;;4937152;29;21002;-79
2022/03/15 07:20:25;;;;;;;0.30;0.30;;;6.90;99.90;;;;;;4937603;29;20813;-80
2022/03/15 07:22:52;;;;;;;0.30;0.30;;;7.00;99.90;;;;;;4937304;29;20454;-78
2022/03/15 07:25:19;;;;;;;0.30;0.27;;;7.00;99.90;;;;;;4937613;29;20459;-78
2022/03/15 07:27:46;;;;;;;0.40;0.40;;;7.00;99.90;;;;;;4937056;29;20482;-79
2022/03/15 07:30:15;;;;;;;0.73;0.40;;;7.10;99.90;;;;;;4936452;29;20891;-78
2022/03/15 07:32:42;;;;;;;0.40;0.40;;;7.20;99.90;;;;;;4936603;29;20518;-78
2022/03/15 07:35:10;;;;;;;0.40;0.30;;;7.20;99.90;;;;;;4936949;29;20482;-78
2022/03/15 07:37:37;;;;;;;0.30;0.30;;;7.30;99.90;;;;;;4936603;29;20459;-79
2022/03/15 07:40:04;;;;;;;0.30;0.30;;;7.30;99.90;;;;;;4936510;29;20868;-78
2022/03/15 07:42:32;;;;;;;0.73;0.73;;;7.30;99.90;;;;;;4936923;29;20478;-78
2022/03/15 07:45:00;;;;;;;0.40;0.30;;;7.30;99.90;;;;;;4937120;29;20459;-78
2022/03/15 07:47:28;;;;;;;1.90;0.40;;;7.40;99.90;;;;;;4937004;29;20458;-78
2022/03/15 07:49:54;;;;;;;1.13;0.40;;;7.40;99.90;;;;;;4940444;29;20466;-78
2022/03/15 07:52:21;;;;;;;0.57;0.40;;;7.50;99.90;;;;;;4940908;29;20454;-78
2022/03/15 07:54:48;;;;;;;0.30;0.30;;;7.50;99.90;;;;;;4940853;29;20978;-79
2022/03/15 07:57:15;;;;;;;0.57;0.57;;;7.60;99.90;;;;;;4941265;29;20459;-79
2022/03/15 07:59:44;;;;;;;0.40;0.30;;;7.60;99.90;;;;;;4940719;29;20487;-79
2022/03/15 08:02:10;;;;;;;0.30;0.30;;;7.70;99.90;;;;;;4942106;29;20442;-79
2022/03/15 08:04:38;;;;;;;0.30;0.20;;;7.70;99.90;;;;;;4941131;29;20427;-79
2022/03/15 08:07:05;;;;;;;0.80;0.80;;;7.80;99.90;;;;;;4942359;29;20948;-79
2022/03/15 08:09:32;;;;;;;0.40;0.30;;;7.90;99.90;;;;;;4941770;29;20471;-79
2022/03/15 08:11:59;;;;;;;0.40;0.40;;;8.00;99.90;;;;;;4941668;29;20431;-79
2022/03/15 08:14:26;;;;;;;0.30;0.30;;;8.10;99.90;;;;;;4941378;29;20451;-79
2022/03/15 08:16:53;;;;;;;1.13;0.43;;;8.20;99.90;;;;;;4942297;29;20475;-79
2022/03/15 08:19:20;;;;;;;0.30;0.20;;;8.20;99.90;;;;;;4941947;29;21009;-79
2022/03/15 08:21:48;;;;;;;0.40;0.33;;;8.30;99.90;;;;;;4941738;29;20530;-79
2022/03/15 08:24:17;;;;;;;0.30;0.30;;;8.40;99.90;;;;;;4940952;29;20809;-79
2022/03/15 08:26:45;;;;;;;0.50;0.50;;;8.50;99.90;;;;;;4941370;29;20442;-79
2022/03/15 08:29:12;;;;;;;0.30;0.27;;;8.60;99.90;;;;;;4940510;29;20484;-79
2022/03/15 08:31:39;;;;;;;0.50;0.50;;;8.70;99.90;;;;;;4940168;29;20912;-79
2022/03/15 08:34:06;;;;;;;0.40;0.40;;;8.80;99.90;;;;;;4940082;29;20444;-80
2022/03/15 08:36:32;;;;;;;1.63;0.40;;;8.90;99.90;;;;;;4939792;29;20471;-80
2022/03/15 08:39:00;;;;;;;0.30;0.30;;;8.90;99.90;;;;;;4939517;29;20487;-79
2022/03/15 08:41:27;;;;;;;0.40;0.40;;;8.80;99.90;;;;;;4940175;29;20443;-80
2022/03/15 08:43:54;;;;;;;0.30;0.27;;;8.80;99.90;;;;;;4940845;29;20455;-80
2022/03/15 08:46:20;;;;;;;0.30;0.20;;;8.80;99.90;;;;;;4942413;29;20454;-79
2022/03/15 08:48:47;;;;;;;0.30;0.30;;;8.70;99.90;;;;;;4942697;29;20474;-79
2022/03/15 08:51:14;;;;;;;0.70;0.70;;;8.70;99.90;;;;;;4943337;29;20455;-79
2022/03/15 08:53:41;;;;;;;0.40;0.40;;;8.60;99.90;;;;;;4946477;29;20470;-79
2022/03/15 08:56:09;;;;;;;0.30;0.30;;;8.60;99.90;;;;;;4949861;29;20494;-79
2022/03/15 08:58:36;;;;;;;0.50;0.47;;;8.60;99.90;;;;;;4950439;29;20478;-80
2022/03/15 09:01:03;;;;;;;0.40;0.40;;;8.60;99.90;;;;;;4945428;29;20804;-79
2022/03/15 09:03:29;;;;;;;0.30;0.20;;;8.60;99.90;;;;;;4947844;29;20455;-80
2022/03/15 09:05:56;;;;;;;0.30;0.30;;;8.50;99.90;;;;;;4951441;29;20447;-79
2022/03/15 09:08:23;;;;;;;0.50;0.30;;;8.50;99.90;;;;;;4949984;29;20463;-79
2022/03/15 09:10:49;;;;;;;0.40;0.40;;;8.50;99.90;;;;;;4948897;29;20470;-80
2022/03/15 09:13:18;;;;;;;0.30;0.20;;;8.50;99.90;;;;;;4946577;29;20465;-80
2022/03/15 09:15:44;;;;;;;0.60;0.60;;;8.40;99.90;;;;;;4946019;29;20892;-79
2022/03/15 09:18:12;;;;;;;0.40;0.30;;;8.40;99.90;;;;;;4944589;29;20474;-79
2022/03/15 09:20:42;;;;;;;0.30;0.20;;;8.40;99.90;;;;;;4945094;29;20563;-79
2022/03/15 09:23:08;;;;;;;0.40;0.30;;;8.40;99.90;;;;;;4944053;29;20450;-79
2022/03/15 09:25:36;;;;;;;0.30;0.20;;;8.40;99.90;;;;;;4942013;29;20439;-79
2022/03/15 09:28:05;;;;;;;0.30;0.20;;;8.60;99.90;;;;;;4941028;29;20526;-79
2022/03/15 09:30:34;;;;;;;0.40;0.30;;;8.60;99.90;;;;;;4940965;29;20446;-79
2022/03/15 09:33:01;;;;;;;0.77;0.30;;;8.70;99.90;;;;;;4939907;29;20440;-80
2022/03/15 09:35:28;;;;;;;0.30;0.30;;;8.90;99.90;;;;;;4939681;29;20773;-80
2022/03/15 09:37:55;;;;;;;1.43;0.93;;;9.00;99.90;;;;;;4938757;29;20482;-79
2022/03/15 09:40:26;;;;;;;0.30;0.30;;;9.00;99.90;;;;;;4938281;29;20486;-79
2022/03/15 09:42:59;;;;;;;0.40;0.30;;;9.00;99.90;;;;;;4939434;29;20443;-79
2022/03/15 09:45:31;;;;;;;0.70;0.33;;;9.00;99.90;;;;;;4939462;29;20450;-79
2022/03/15 09:48:01;;;;;;;1.10;1.00;;;8.90;99.90;;;;;;4940041;29;20838;-79
2022/03/15 09:50:28;;;;;;;0.40;0.40;;;8.90;99.90;;;;;;4940019;29;20436;-80
2022/03/15 09:52:57;;;;;;;0.40;0.30;;;8.80;99.90;;;;;;4939715;29;20431;-79
2022/03/15 09:55:25;;;;;;;0.77;0.40;;;8.80;99.90;;;;;;4940986;29;20792;-81
2022/03/15 09:57:54;;;;;;;0.30;0.30;;;8.80;99.90;;;;;;4945180;29;20467;-80
2022/03/15 10:00:21;;;;;;;0.30;0.30;;;8.80;99.90;;;;;;4945755;29;20438;-79
2022/03/15 10:02:48;;;;;;;0.40;0.30;;;8.80;99.90;;;;;;4941311;29;20432;-80
2022/03/15 10:05:16;;;;;;;0.30;0.30;;;8.80;99.90;;;;;;4939369;29;20428;-78
2022/03/15 10:07:43;;;;;;;0.40;0.40;;;8.80;99.90;;;;;;4939610;29;20451;-79
2022/03/15 10:10:14;;;;;;;2.07;1.27;;;8.80;99.90;;;;;;4939138;29;20930;-79
2022/03/15 10:12:41;;;;;;;0.40;0.40;;;8.80;99.90;;;;;;4937527;29;20431;-79
2022/03/15 10:15:14;;;;;;;2.10;0.50;;;8.80;99.90;;;;;;4937655;29;20439;-79
2022/03/15 10:17:46;;;;;;;0.30;0.30;;;8.80;99.90;;;;;;4938207;29;20502;-80
2022/03/15 10:20:17;;;;;;;0.30;0.30;;;8.80;99.90;;;;;;4937402;29;20431;-80
2022/03/15 10:22:55;;;;;;;0.97;0.30;;;8.80;99.90;;;;;;4937361;29;20451;-80
2022/03/15 10:25:23;;;;;;;0.40;0.40;;;8.90;99.90;;;;;;4938555;29;20443;-80
2022/03/15 10:27:55;;;;;;;0.60;0.40;;;8.90;99.90;;;;;;4937803;29;20894;-80
2022/03/15 10:30:23;;;;;;;0.30;0.30;;;8.90;99.90;;;;;;4937736;29;20455;-80
2022/03/15 10:32:50;;;;;;;0.30;0.30;;;8.90;99.90;;;;;;4937511;29;20450;-80
2022/03/15 10:35:23;;;;;;;0.30;0.30;;;8.90;99.90;;;;;;4937365;29;20451;-80
2022/03/15 10:37:51;;;;;;;0.30;0.30;;;8.90;99.90;;;;;;4937128;29;20495;-80
2022/03/15 10:40:19;;;;;;;0.30;0.20;;;9.00;99.90;;;;;;4936451;29;20482;-80
2022/03/15 10:42:47;;;;;;;0.40;0.30;;;9.00;99.90;;;;;;4936554;29;20977;-77
2022/03/15 10:45:16;;;;;;;0.87;0.40;;;9.10;99.90;;;;;;4937075;29;20811;-81
2022/03/15 10:47:49;;;;;;;0.50;0.40;;;9.10;99.90;;;;;;4936820;29;20463;-77
2022/03/15 10:50:16;;;;;;;0.30;0.30;;;9.10;99.90;;;;;;4936822;29;20441;-77
2022/03/15 10:52:46;;;;;;;1.03;0.40;;;9.10;99.90;;;;;;4936906;29;20459;-77
2022/03/15 10:55:14;;;;;;;0.30;0.30;;;9.10;99.90;;;;;;4936893;29;20455;-77
2022/03/15 10:57:53;;;;;;;0.30;0.30;;;9.10;99.90;;;;;;4936509;29;20868;-77
2022/03/15 11:00:22;;;;;;;0.30;0.30;;;9.00;99.90;;;;;;4937035;29;20794;-77
2022/03/15 11:02:51;;;;;;;0.30;0.20;;;9.10;99.90;;;;;;4936620;29;20462;-78
2022/03/15 11:05:31;;;;;;;0.30;0.30;;;9.00;99.90;;;;;;4936838;29;20451;-77
2022/03/15 11:08:04;;;;;;;0.40;0.40;;;9.00;99.90;;;;;;4936821;29;20471;-77
2022/03/15 11:10:32;;;;;;;0.30;0.30;;;8.90;99.90;;;;;;4936885;29;20444;-77
2022/03/15 11:13:02;;;;;;;1.33;0.30;;;9.00;99.90;;;;;;4936732;29;20458;-77
2022/03/15 11:15:30;;;;;;;0.70;0.70;;;8.90;99.90;;;;;;4937122;29;20439;-78
2022/03/15 11:18:02;;;;;;;0.67;0.40;;;8.80;99.90;;;;;;4937622;29;20486;-77
2022/03/15 11:20:31;;;;;;;0.40;0.30;;;8.70;99.90;;;;;;4937952;29;20546;-77
2022/03/15 11:23:01;;;;;;;0.40;0.30;;;8.70;99.90;;;;;;4937903;29;20459;-77
2022/03/15 11:25:35;;;;;;;0.30;0.30;;;8.70;99.90;;;;;;4941052;29;20431;-76
2022/03/15 11:28:04;;;;;;;0.40;0.40;;;8.70;99.90;;;;;;4940220;29;20515;-76
2022/03/15 11:30:31;;;;;;;0.30;0.30;;;8.60;99.90;;;;;;4939992;29;20973;-77
2022/03/15 11:33:01;;;;;;;0.40;0.30;;;8.70;99.90;;;;;;4940371;29;20457;-76
2022/03/15 11:35:29;;;;;;;0.30;0.20;;;8.70;99.90;;;;;;4950029;29;20435;-78
2022/03/15 11:37:58;;;;;;;0.33;0.30;;;8.70;99.90;;;;;;4943645;29;20490;-77
2022/03/15 11:40:27;;;;;;;0.30;0.30;;;8.70;99.90;;;;;;4940082;29;21002;-77
2022/03/15 11:43:00;;;;;;;0.40;0.30;;;8.70;99.90;;;;;;4940785;29;20451;-77
2022/03/15 11:45:31;;;;;;;0.90;0.70;;;8.70;99.90;;;;;;4940576;29;20442;-76
2022/03/15 11:48:05;;;;;;;0.67;0.37;;;8.80;99.90;;;;;;4940745;29;20467;-78
2022/03/15 11:50:38;;;;;;;0.30;0.30;;;8.80;99.90;;;;;;4941357;29;20472;-75
2022/03/15 11:53:09;;;;;;;0.30;0.30;;;8.80;99.90;;;;;;4941422;29;20431;-75
2022/03/15 11:55:46;;;;;;;0.90;0.40;;;8.80;99.90;;;;;;4940937;29;20443;-75
2022/03/15 11:58:23;;;;;;;0.30;0.30;;;8.90;99.90;;;;;;4940063;29;20490;-74
2022/03/15 12:00:50;;;;;;;0.30;0.30;;;8.90;99.90;;;;;;4940527;29;20442;-76
2022/03/15 12:03:19;;;;;;;0.40;0.30;;;8.90;99.90;;;;;;4939390;29;20459;-78
2022/03/15 12:05:49;;;;;;;0.30;0.20;;;9.00;99.90;;;;;;4939341;29;20530;-77
2022/03/15 12:08:18;;;;;;;0.30;0.30;;;9.00;99.90;;;;;;4938922;29;21006;-77
2022/03/15 12:10:52;;;;;;;0.50;0.50;;;9.00;99.90;;;;;;4939328;29;20451;-77
2022/03/15 12:13:20;;;;;;;0.30;0.30;;;9.00;99.90;;;;;;4939728;29;20435;-77
2022/03/15 12:15:50;;;;;;;0.50;0.30;;;9.10;99.90;;;;;;4939137;29;20514;-77
2022/03/15 12:18:33;;;;;;;1.60;0.47;;;9.10;99.90;;;;;;4939016;29;20494;-77
2022/03/15 12:21:07;;;;;;;0.40;0.30;;;9.00;99.90;;;;;;4939072;29;20435;-77
2022/03/15 12:23:41;;;;;;;0.30;0.30;;;9.00;99.90;;;;;;4939038;29;20791;-78
2022/03/15 12:26:19;;;;;;;0.30;0.30;;;8.90;99.90;;;;;;4939064;29;20824;-78
2022/03/15 12:28:59;;;;;;;0.40;0.27;;;9.00;99.90;;;;;;4939027;29;20477;-77
2022/03/15 12:31:38;;;;;;;0.30;0.30;;;9.00;99.90;;;;;;4939778;29;20498;-77
2022/03/15 12:34:06;;;;;;;0.40;0.30;;;9.00;99.90;;;;;;4938702;29;20463;-78
2022/03/15 12:36:37;;;;;;;0.53;0.40;;;9.00;99.90;;;;;;4938862;29;20523;-77
2022/03/15 12:39:10;;;;;;;1.40;0.33;;;9.10;99.90;;;;;;4938419;29;20994;-77
2022/03/15 12:41:40;;;;;;;0.40;0.30;;;9.10;99.90;;;;;;4938395;29;21002;-77
2022/03/15 12:44:07;;;;;;;0.43;0.43;;;9.10;99.90;;;;;;4938748;29;20451;-77
2022/03/15 12:46:35;;;;;;;0.30;0.30;;;9.10;99.90;;;;;;4938681;29;20451;-77
2022/03/15 12:49:06;;;;;;;0.40;0.30;;;9.10;99.90;;;;;;4938682;29;20579;-77
2022/03/15 12:51:38;;;;;;;0.40;0.30;;;9.20;99.90;;;;;;4938707;29;20471;-77
2022/03/15 12:54:07;;;;;;;1.37;1.27;;;9.20;99.90;;;;;;4938890;29;20436;-77
2022/03/15 12:56:41;;;;;;;0.33;0.33;;;9.20;99.90;;;;;;4938208;29;20478;-77
2022/03/15 12:59:21;;;;;;;0.40;0.40;;;9.20;99.90;;;;;;4938602;29;20467;-74
2022/03/15 13:01:48;;;;;;;0.40;0.40;;;9.20;99.90;;;;;;4938692;29;20443;-75
2022/03/15 13:04:15;;;;;;;0.50;0.30;;;9.20;99.90;;;;;;4938317;29;20828;-76